Time;durP1;ratioP1;P1;durP2;ratioP2;P2;SDS_P1;SDS_P2;PMS_P1;PMS_P2;Temp;Humidity;BMP_temperature;BMP_pressure;BME280_temperature;BME280_humidity;BME280_pressure;Samples;Min_cycle;Max_cycle;Signal;HPM_P1;HPM_P2
2022/12/18 00:01:40;;;;;;;8.60;5.55;;;9.90;96.70;;;;;;5071686;28;20043;-76
2022/12/18 00:04:20;;;;;;;8.15;5.90;;;9.90;96.70;;;;;;5072836;28;20098;-75
2022/12/18 00:06:49;;;;;;;8.10;5.00;;;10.00;96.70;;;;;;5073988;28;20048;-76
2022/12/18 00:09:21;;;;;;;9.52;5.43;;;10.00;96.70;;;;;;5073700;28;20063;-75
2022/12/18 00:11:53;;;;;;;7.22;5.15;;;10.10;96.70;;;;;;5071758;28;20040;-75
2022/12/18 00:14:23;;;;;;;7.78;5.47;;;10.10;96.70;;;;;;5068258;28;21352;-75
2022/12/18 00:16:51;;;;;;;11.30;8.73;;;10.00;96.70;;;;;;5068082;28;20044;-76
2022/12/18 00:19:19;;;;;;;12.50;7.32;;;9.90;96.70;;;;;;5079626;28;20052;-76
2022/12/18 00:21:48;;;;;;;11.35;6.35;;;9.70;96.70;;;;;;5069764;28;20044;-75
2022/12/18 00:24:16;;;;;;;8.57;6.22;;;9.70;96.70;;;;;;5073092;28;20137;-75
2022/12/18 00:26:47;;;;;;;7.35;6.32;;;9.60;96.70;;;;;;5065929;28;20036;-75
2022/12/18 00:29:15;;;;;;;8.70;5.43;;;9.70;96.70;;;;;;5079774;28;20068;-77
2022/12/18 00:31:43;;;;;;;9.95;6.05;;;9.70;96.70;;;;;;5067916;28;20037;-75
2022/12/18 00:34:13;;;;;;;8.00;5.03;;;9.70;96.70;;;;;;5060128;28;20047;-76
2022/12/18 00:36:41;;;;;;;9.25;6.03;;;9.70;96.70;;;;;;5072182;28;20045;-75
2022/12/18 00:39:11;;;;;;;12.70;7.30;;;9.70;96.70;;;;;;5076122;28;20214;-75
2022/12/18 00:44:42;;;;;;;13.50;6.80;;;9.70;96.70;;;;;;5082818;28;20055;-76
2022/12/18 00:47:10;;;;;;;10.27;5.75;;;9.60;96.70;;;;;;5077255;28;20070;-76
2022/12/18 00:49:39;;;;;;;7.25;4.60;;;9.50;96.70;;;;;;5075090;28;20048;-75
2022/12/18 00:52:07;;;;;;;12.02;6.00;;;9.50;96.70;;;;;;5072155;28;20414;-75
2022/12/18 00:54:35;;;;;;;8.75;5.90;;;9.50;96.70;;;;;;5068093;28;20053;-76
2022/12/18 00:57:04;;;;;;;10.55;6.35;;;9.50;96.70;;;;;;5071451;28;20043;-75
2022/12/18 00:59:32;;;;;;;10.02;6.45;;;9.50;96.70;;;;;;5071947;28;20135;-75
2022/12/18 01:02:00;;;;;;;12.13;6.63;;;9.60;96.70;;;;;;5068586;28;20041;-75
2022/12/18 01:04:33;;;;;;;8.63;6.00;;;9.60;96.70;;;;;;5079916;28;20054;-75
2022/12/18 01:07:01;;;;;;;10.45;6.45;;;9.60;96.70;;;;;;5076707;28;20521;-75
2022/12/18 01:09:29;;;;;;;12.57;7.07;;;9.60;96.70;;;;;;5081825;28;20044;-75
2022/12/18 01:11:57;;;;;;;9.32;6.10;;;9.60;96.70;;;;;;5069216;28;20045;-75
2022/12/18 01:14:27;;;;;;;10.43;6.60;;;9.70;96.70;;;;;;5079326;28;20056;-75
2022/12/18 01:16:55;;;;;;;10.27;6.38;;;9.70;96.70;;;;;;5072491;28;20052;-75
2022/12/18 01:19:23;;;;;;;10.43;6.68;;;9.70;96.70;;;;;;5063111;28;20056;-75
2022/12/18 01:21:51;;;;;;;11.52;6.88;;;9.70;96.70;;;;;;5072704;28;20676;-75
2022/12/18 01:24:19;;;;;;;10.68;6.72;;;9.70;96.70;;;;;;5071473;28;20047;-75
2022/12/18 01:26:49;;;;;;;12.30;6.97;;;9.70;96.70;;;;;;5064327;28;20040;-75
2022/12/18 01:29:16;;;;;;;12.57;7.57;;;9.70;96.70;;;;;;5069453;28;20125;-75
2022/12/18 01:31:46;;;;;;;8.85;6.07;;;9.70;96.70;;;;;;5074922;28;20074;-75
2022/12/18 01:34:14;;;;;;;9.95;6.18;;;9.70;96.70;;;;;;5082194;28;20043;-75
2022/12/18 01:36:42;;;;;;;6.57;4.72;;;9.70;96.70;;;;;;5079908;28;20052;-74
2022/12/18 01:39:12;;;;;;;5.85;4.18;;;9.70;96.70;;;;;;5078203;28;20501;-75
2022/12/18 01:45:19;;;;;;;6.78;4.13;;;9.70;96.70;;;;;;5080252;28;20062;-75
2022/12/18 01:47:51;;;;;;;6.30;3.88;;;9.60;96.70;;;;;;4981624;28;20046;-76
2022/12/18 01:50:22;;;;;;;5.35;3.78;;;9.60;96.70;;;;;;5075349;28;20048;-76
2022/12/18 01:52:53;;;;;;;6.47;4.10;;;9.60;96.70;;;;;;5067717;28;20893;-74
2022/12/18 01:55:24;;;;;;;7.32;3.60;;;9.60;96.70;;;;;;5064424;28;20052;-73
2022/12/18 01:57:54;;;;;;;5.28;4.05;;;9.60;96.70;;;;;;5081782;28;20146;-75
2022/12/18 02:00:24;;;;;;;5.00;3.33;;;9.60;96.70;;;;;;5069869;28;20056;-74
2022/12/18 02:02:55;;;;;;;5.15;3.42;;;9.50;96.70;;;;;;5075787;28;20636;-75
2022/12/18 02:05:35;;;;;;;6.72;3.58;;;9.40;96.70;;;;;;5070098;28;20064;-74
2022/12/18 02:08:10;;;;;;;5.45;3.17;;;9.40;96.70;;;;;;5069210;28;20047;-74
2022/12/18 02:10:47;;;;;;;4.57;3.40;;;9.40;96.70;;;;;;5066849;28;20044;-74
2022/12/18 02:13:22;;;;;;;5.78;3.15;;;9.30;96.70;;;;;;5082643;28;20159;-73
2022/12/18 02:16:00;;;;;;;4.25;3.00;;;9.30;96.70;;;;;;5076606;28;20118;-74
2022/12/18 02:18:35;;;;;;;4.63;3.25;;;9.30;96.70;;;;;;5069023;28;20048;-74
2022/12/18 02:21:12;;;;;;;5.05;3.20;;;9.30;96.70;;;;;;5065861;28;20049;-74
2022/12/18 02:23:56;;;;;;;4.22;2.63;;;9.30;96.70;;;;;;5069441;28;20102;-74
2022/12/18 02:26:31;;;;;;;5.68;3.47;;;9.30;96.70;;;;;;5064300;28;20047;-75
2022/12/18 02:29:03;;;;;;;5.28;3.35;;;9.30;96.70;;;;;;5049933;28;20048;-74
2022/12/18 02:31:38;;;;;;;3.78;3.25;;;9.40;96.70;;;;;;5079298;28;20047;-75
2022/12/18 02:34:09;;;;;;;5.05;2.97;;;9.40;96.70;;;;;;5065577;28;20159;-75
2022/12/18 02:36:42;;;;;;;5.80;3.60;;;9.40;96.70;;;;;;5067604;28;20047;-75
2022/12/18 02:39:13;;;;;;;4.82;3.75;;;9.40;96.70;;;;;;5065417;28;20045;-74
2022/12/18 02:41:59;;;;;;;4.72;3.67;;;9.40;96.70;;;;;;5082533;28;20056;-74
2022/12/18 02:44:29;;;;;;;11.55;4.55;;;9.40;96.70;;;;;;5078263;28;20048;-75
2022/12/18 02:46:58;;;;;;;4.85;3.60;;;9.40;96.70;;;;;;5077653;28;20041;-74
2022/12/18 02:49:34;;;;;;;5.82;4.13;;;9.50;96.70;;;;;;5069657;28;20501;-75
2022/12/18 02:52:09;;;;;;;5.10;3.63;;;9.50;96.70;;;;;;5071114;28;20044;-75
2022/12/18 02:54:51;;;;;;;5.65;3.80;;;9.50;96.70;;;;;;5073869;28;20048;-75
2022/12/18 02:57:31;;;;;;;5.47;3.78;;;9.50;96.70;;;;;;5074091;28;20453;-75
2022/12/18 03:00:04;;;;;;;6.07;4.80;;;9.50;96.70;;;;;;5074533;28;20138;-75
2022/12/18 03:02:37;;;;;;;4.97;4.45;;;9.40;96.70;;;;;;5075116;28;20131;-75
2022/12/18 03:05:11;;;;;;;7.13;5.20;;;9.40;96.70;;;;;;5069642;28;20049;-75
2022/12/18 03:07:46;;;;;;;6.00;5.10;;;9.40;96.70;;;;;;5071055;28;20189;-75
2022/12/18 03:10:19;;;;;;;7.15;4.60;;;9.30;96.70;;;;;;5054627;28;20072;-75
2022/12/18 03:12:54;;;;;;;5.75;5.10;;;9.30;96.70;;;;;;5077654;28;20520;-75
2022/12/18 03:15:26;;;;;;;7.90;5.47;;;9.20;96.70;;;;;;5062896;28;20158;-75
2022/12/18 03:18:07;;;;;;;6.70;4.95;;;9.20;96.70;;;;;;5065416;28;21154;-75
2022/12/18 03:20:36;;;;;;;7.47;5.30;;;9.20;96.70;;;;;;5068114;28;20048;-76
2022/12/18 03:23:09;;;;;;;6.70;5.00;;;9.20;96.70;;;;;;5070362;28;20461;-75
2022/12/18 03:25:40;;;;;;;7.57;5.60;;;9.20;96.70;;;;;;5061564;28;20047;-75
2022/12/18 03:28:14;;;;;;;7.90;5.40;;;9.30;96.70;;;;;;5067885;28;20724;-75
2022/12/18 03:30:45;;;;;;;9.38;5.97;;;9.30;96.70;;;;;;5068449;28;20059;-75
2022/12/18 03:33:19;;;;;;;6.78;5.13;;;9.20;96.70;;;;;;5070658;28;20063;-75
2022/12/18 03:35:49;;;;;;;8.20;5.47;;;9.20;96.70;;;;;;5074663;28;20045;-75
2022/12/18 03:38:19;;;;;;;6.50;4.55;;;9.20;96.70;;;;;;5067284;28;20079;-74
2022/12/18 03:41:00;;;;;;;6.93;5.40;;;9.20;96.70;;;;;;5072293;28;20044;-75
2022/12/18 03:43:41;;;;;;;7.97;5.18;;;9.20;96.70;;;;;;5076761;28;20412;-75
2022/12/18 03:46:20;;;;;;;7.93;5.65;;;9.20;96.70;;;;;;5065526;28;20608;-75
2022/12/18 03:48:55;;;;;;;6.55;5.13;;;9.20;96.70;;;;;;5070593;28;20147;-75
2022/12/18 03:51:31;;;;;;;10.05;6.32;;;9.20;96.70;;;;;;5064783;28;20051;-75
2022/12/18 03:54:01;;;;;;;8.50;5.38;;;9.20;96.70;;;;;;5075055;28;20044;-76
2022/12/18 03:56:36;;;;;;;10.13;6.10;;;9.20;96.70;;;;;;5078214;28;20051;-77
2022/12/18 03:59:10;;;;;;;6.75;5.22;;;9.10;96.70;;;;;;5065796;28;20048;-75
2022/12/18 04:01:42;;;;;;;8.23;5.75;;;9.10;96.70;;;;;;5049688;28;20175;-75
2022/12/18 04:04:14;;;;;;;9.38;6.05;;;9.10;96.70;;;;;;5074263;28;20052;-75
2022/12/18 04:06:46;;;;;;;6.78;5.45;;;9.10;96.70;;;;;;5067481;28;20051;-75
2022/12/18 04:09:15;;;;;;;7.88;5.47;;;9.10;96.70;;;;;;5070026;28;20033;-75
2022/12/18 04:11:47;;;;;;;7.57;5.63;;;9.20;96.70;;;;;;5068729;28;20135;-75
2022/12/18 04:14:18;;;;;;;10.43;5.53;;;9.10;96.70;;;;;;5056326;28;20567;-75
2022/12/18 04:16:50;;;;;;;6.93;6.22;;;9.10;96.70;;;;;;5069828;28;20071;-75
2022/12/18 04:19:23;;;;;;;8.00;5.85;;;9.10;96.70;;;;;;5070516;28;20387;-75
2022/12/18 04:21:53;;;;;;;7.70;5.47;;;9.00;96.70;;;;;;5071099;28;20135;-76
2022/12/18 04:24:21;;;;;;;9.18;5.57;;;9.10;96.70;;;;;;5061911;28;20068;-74
2022/12/18 04:27:09;;;;;;;7.70;5.60;;;9.10;96.70;;;;;;5066001;28;20052;-75
2022/12/18 04:29:45;;;;;;;6.60;5.07;;;9.00;96.70;;;;;;5068250;28;20049;-75
2022/12/18 04:32:15;;;;;;;8.02;5.65;;;9.00;96.70;;;;;;5070650;28;20052;-75
2022/12/18 04:34:44;;;;;;;8.40;5.45;;;9.00;96.70;;;;;;5063186;28;20044;-76
2022/12/18 04:37:13;;;;;;;7.20;5.45;;;9.00;96.70;;;;;;5065550;28;20036;-75
2022/12/18 04:39:42;;;;;;;7.25;5.75;;;9.00;96.70;;;;;;5073671;28;20110;-75
2022/12/18 04:42:18;;;;;;;8.40;6.05;;;9.00;96.70;;;;;;5069241;28;20147;-75
2022/12/18 04:44:48;;;;;;;6.40;5.18;;;9.00;96.70;;;;;;5075513;28;20047;-75
2022/12/18 04:47:16;;;;;;;7.18;5.28;;;9.00;96.70;;;;;;5072667;28;20039;-74
2022/12/18 04:49:45;;;;;;;8.15;6.13;;;8.90;96.70;;;;;;5070584;28;20049;-75
2022/12/18 04:52:13;;;;;;;8.40;5.57;;;8.90;96.70;;;;;;5073000;28;20388;-76
2022/12/18 04:54:41;;;;;;;8.48;6.20;;;8.90;96.70;;;;;;5066906;28;20053;-76
2022/12/18 04:57:09;;;;;;;7.88;5.65;;;8.80;96.70;;;;;;5068867;28;20044;-75
2022/12/18 04:59:37;;;;;;;6.00;5.03;;;8.70;96.70;;;;;;5076566;28;20052;-75
2022/12/18 05:02:07;;;;;;;8.38;5.65;;;8.70;96.70;;;;;;5078895;28;20044;-75
2022/12/18 05:04:35;;;;;;;6.55;5.35;;;8.80;96.70;;;;;;5072038;28;20047;-75
2022/12/18 05:07:03;;;;;;;9.07;5.15;;;8.80;96.70;;;;;;5074338;28;20032;-75
2022/12/18 05:09:34;;;;;;;7.68;5.75;;;8.80;96.70;;;;;;5069230;28;20036;-74
2022/12/18 05:12:03;;;;;;;7.63;4.97;;;8.70;96.70;;;;;;5068278;28;20048;-75
2022/12/18 05:14:31;;;;;;;7.80;5.57;;;8.60;96.70;;;;;;5063370;28;20049;-74
2022/12/18 05:16:59;;;;;;;7.47;5.13;;;8.70;96.70;;;;;;5068733;28;20045;-75
2022/12/18 05:19:29;;;;;;;6.75;5.55;;;8.70;96.70;;;;;;5066427;28;20046;-75
2022/12/18 05:21:57;;;;;;;7.03;5.60;;;8.70;96.70;;;;;;5074529;28;20036;-75
2022/12/18 05:24:25;;;;;;;8.18;5.88;;;8.70;96.70;;;;;;5070148;28;20712;-74
2022/12/18 05:26:53;;;;;;;10.15;6.68;;;8.70;96.70;;;;;;5065009;28;20535;-74
2022/12/18 05:29:22;;;;;;;10.77;7.13;;;8.70;96.70;;;;;;5066990;28;20054;-74
2022/12/18 05:31:50;;;;;;;9.52;6.97;;;8.60;96.70;;;;;;5069201;28;20646;-74
2022/12/18 05:34:18;;;;;;;8.50;6.72;;;8.60;96.70;;;;;;5071219;28;20238;-74
2022/12/18 05:36:47;;;;;;;10.10;6.90;;;8.60;96.70;;;;;;5068526;28;20079;-75
2022/12/18 05:39:16;;;;;;;7.07;6.38;;;8.60;96.70;;;;;;5073706;28;20044;-74
2022/12/18 05:41:44;;;;;;;9.10;6.40;;;8.60;96.70;;;;;;5080681;28;20040;-75
2022/12/18 05:44:12;;;;;;;8.80;6.72;;;8.50;96.70;;;;;;5078522;28;20121;-74
2022/12/18 05:46:43;;;;;;;8.18;6.13;;;8.60;96.70;;;;;;5071962;28;20052;-75
2022/12/18 05:49:11;;;;;;;7.97;6.35;;;8.60;96.70;;;;;;5080090;28;20040;-75
2022/12/18 05:51:39;;;;;;;9.88;6.35;;;8.50;96.70;;;;;;5055880;28;20043;-74
2022/12/18 05:54:09;;;;;;;8.93;6.35;;;8.50;96.70;;;;;;5072210;28;20044;-74
2022/12/18 05:56:37;;;;;;;8.20;6.00;;;8.50;96.70;;;;;;5074208;28;20040;-74
2022/12/18 05:59:12;;;;;;;8.60;7.00;;;8.50;96.70;;;;;;5082100;28;20044;-74
2022/12/18 06:01:41;;;;;;;7.97;6.45;;;8.50;96.70;;;;;;5067434;28;20040;-74
2022/12/18 06:04:09;;;;;;;9.43;6.10;;;8.50;96.70;;;;;;5065814;28;20048;-74
2022/12/18 06:06:38;;;;;;;7.50;6.00;;;8.50;96.70;;;;;;5063713;28;20048;-74
2022/12/18 06:09:09;;;;;;;6.70;5.90;;;8.50;96.70;;;;;;5073916;28;20048;-75
2022/12/18 06:11:38;;;;;;;7.18;5.72;;;8.50;96.70;;;;;;5075770;28;20048;-74
2022/12/18 06:14:07;;;;;;;7.80;6.03;;;8.50;96.70;;;;;;5065289;28;20054;-75
2022/12/18 06:16:35;;;;;;;8.23;6.20;;;8.60;96.70;;;;;;5056398;28;20052;-73
2022/12/18 06:19:05;;;;;;;10.18;6.05;;;8.50;96.70;;;;;;5077600;28;20036;-74
2022/12/18 06:21:33;;;;;;;8.55;5.75;;;8.50;96.70;;;;;;5078385;28;20398;-73
2022/12/18 06:24:01;;;;;;;8.75;5.95;;;8.50;96.70;;;;;;5068617;28;20504;-74
2022/12/18 06:26:31;;;;;;;10.43;6.70;;;8.50;96.70;;;;;;5069648;28;20054;-73
2022/12/18 06:28:59;;;;;;;7.38;5.72;;;8.50;96.70;;;;;;5070329;28;20048;-74
2022/12/18 06:31:28;;;;;;;7.53;6.28;;;8.50;96.70;;;;;;5069127;28;20097;-75
2022/12/18 06:33:57;;;;;;;7.57;5.70;;;8.50;96.70;;;;;;5082902;28;20048;-75
2022/12/18 06:36:32;;;;;;;6.65;5.32;;;8.60;96.70;;;;;;5066651;28;20165;-74
2022/12/18 06:39:07;;;;;;;7.47;6.13;;;8.50;96.70;;;;;;5080901;28;20052;-73
2022/12/18 06:41:38;;;;;;;8.40;5.43;;;8.50;96.70;;;;;;5064371;28;20087;-74
2022/12/18 06:44:06;;;;;;;10.48;6.40;;;8.50;96.70;;;;;;5072359;28;20045;-74
2022/12/18 06:46:35;;;;;;;8.95;6.20;;;8.50;96.70;;;;;;5072996;28;20048;-74
2022/12/18 06:49:04;;;;;;;9.38;6.75;;;8.40;96.70;;;;;;5064571;28;20428;-74
2022/12/18 06:51:33;;;;;;;10.25;7.70;;;8.40;96.70;;;;;;5082906;28;20043;-74
2022/12/18 06:54:01;;;;;;;9.98;7.25;;;8.40;96.70;;;;;;5082202;28;20144;-74
2022/12/18 06:56:30;;;;;;;9.38;7.50;;;8.40;96.70;;;;;;5083144;28;20093;-74
2022/12/18 06:59:00;;;;;;;12.57;7.95;;;8.30;96.70;;;;;;5081532;28;20052;-74
2022/12/18 07:01:29;;;;;;;12.50;7.63;;;8.30;96.70;;;;;;5075364;28;20075;-74
2022/12/18 07:03:58;;;;;;;12.27;8.63;;;8.40;96.70;;;;;;5083502;28;20036;-74
2022/12/18 07:06:26;;;;;;;11.57;8.00;;;8.40;96.70;;;;;;5082007;28;20517;-74
2022/12/18 07:08:55;;;;;;;13.52;7.60;;;8.40;96.70;;;;;;5082226;28;20378;-74
2022/12/18 07:11:24;;;;;;;10.27;6.80;;;8.50;96.70;;;;;;5072856;28;20060;-74
2022/12/18 07:13:54;;;;;;;11.60;7.10;;;8.50;96.70;;;;;;5078418;28;20044;-75
2022/12/18 07:16:23;;;;;;;9.30;6.43;;;8.60;96.70;;;;;;5082660;28;20153;-74
2022/12/18 07:18:53;;;;;;;9.90;6.72;;;8.60;96.70;;;;;;5076430;28;20048;-74
2022/12/18 07:21:23;;;;;;;7.93;5.72;;;8.60;96.70;;;;;;5079081;28;20040;-75
2022/12/18 07:23:51;;;;;;;9.68;7.60;;;8.50;96.70;;;;;;5078232;28;20657;-74
2022/12/18 07:26:21;;;;;;;10.18;7.78;;;8.50;96.70;;;;;;5073294;28;20059;-74
2022/12/18 07:28:50;;;;;;;10.43;7.43;;;8.50;96.70;;;;;;5074735;28;20044;-74
2022/12/18 07:31:21;;;;;;;12.57;8.80;;;8.60;96.70;;;;;;5073207;28;20044;-74
2022/12/18 07:33:52;;;;;;;11.13;7.75;;;8.70;96.70;;;;;;5081649;28;20052;-74
2022/12/18 07:36:24;;;;;;;10.18;7.55;;;8.70;96.70;;;;;;5062230;28;20502;-74
2022/12/18 07:38:53;;;;;;;9.85;7.35;;;8.80;96.70;;;;;;5069820;28;20052;-74
2022/12/18 07:41:21;;;;;;;13.63;9.45;;;8.80;96.70;;;;;;5062121;28;20125;-74
2022/12/18 07:43:49;;;;;;;10.75;7.80;;;8.90;96.70;;;;;;5075107;28;20071;-74
2022/12/18 07:46:18;;;;;;;8.93;7.05;;;8.90;96.70;;;;;;5081021;28;20044;-75
2022/12/18 07:48:48;;;;;;;9.32;6.43;;;8.90;96.70;;;;;;5062729;28;20043;-74
2022/12/18 07:51:19;;;;;;;9.35;7.18;;;8.90;96.70;;;;;;5073890;28;20044;-74
2022/12/18 07:53:48;;;;;;;18.00;12.50;;;9.00;96.70;;;;;;5072816;28;20040;-74
2022/12/18 07:56:20;;;;;;;12.98;9.23;;;8.90;96.70;;;;;;5082465;28;20122;-75
2022/12/18 07:58:59;;;;;;;12.05;8.77;;;8.90;96.70;;;;;;5071826;28;20048;-75
2022/12/18 08:01:28;;;;;;;12.27;8.75;;;8.90;96.70;;;;;;5073833;28;20109;-75
2022/12/18 08:03:58;;;;;;;11.57;8.32;;;8.90;96.70;;;;;;5083822;28;20044;-75
2022/12/18 08:06:30;;;;;;;10.13;7.82;;;9.00;96.70;;;;;;5072609;28;20075;-75
2022/12/18 08:09:00;;;;;;;10.13;7.70;;;9.00;96.70;;;;;;5080790;28;20118;-74
2022/12/18 08:11:29;;;;;;;14.15;10.50;;;9.00;96.70;;;;;;5082453;28;20404;-74
2022/12/18 08:13:58;;;;;;;14.23;10.27;;;9.10;96.70;;;;;;5079613;28;20067;-74
2022/12/18 08:16:27;;;;;;;13.27;9.55;;;9.10;96.70;;;;;;5076239;28;20055;-74
2022/12/18 08:18:56;;;;;;;12.57;9.50;;;9.10;96.70;;;;;;5067615;28;20049;-74
2022/12/18 08:21:26;;;;;;;12.00;7.75;;;9.20;96.70;;;;;;5071137;28;20131;-75
2022/12/18 08:23:58;;;;;;;12.02;8.35;;;9.20;96.70;;;;;;5072960;28;20063;-75
2022/12/18 08:26:30;;;;;;;10.27;8.30;;;9.30;96.70;;;;;;5080572;28;20542;-74
2022/12/18 08:28:59;;;;;;;10.82;8.40;;;9.40;96.70;;;;;;5075294;28;20107;-74
2022/12/18 08:31:29;;;;;;;12.25;7.72;;;9.40;96.70;;;;;;5074029;28;20040;-75
2022/12/18 08:33:57;;;;;;;10.50;6.97;;;9.60;96.70;;;;;;5078943;28;20106;-74
2022/12/18 08:36:26;;;;;;;9.40;7.30;;;9.60;96.70;;;;;;5078410;28;20050;-75
2022/12/18 08:38:57;;;;;;;9.68;7.00;;;9.70;96.70;;;;;;5075303;28;20083;-75
2022/12/18 08:41:25;;;;;;;9.23;6.95;;;9.70;96.70;;;;;;5074294;28;20048;-75
2022/12/18 08:46:41;;;;;;;8.25;6.80;;;10.00;96.70;;;;;;5083821;28;20044;-76
2022/12/18 08:49:10;;;;;;;7.65;6.07;;;10.10;96.70;;;;;;5077366;28;20087;-77
2022/12/18 08:51:39;;;;;;;9.15;6.13;;;10.20;96.70;;;;;;5084710;28;20044;-75
2022/12/18 08:54:12;;;;;;;7.30;5.20;;;10.30;96.70;;;;;;5075352;28;20112;-76
2022/12/18 08:56:40;;;;;;;6.80;5.00;;;10.30;96.70;;;;;;5084190;28;20044;-76
2022/12/18 08:59:09;;;;;;;6.47;5.15;;;10.40;96.70;;;;;;5077088;28;20044;-76
2022/12/18 09:01:46;;;;;;;7.55;6.15;;;10.50;96.70;;;;;;5083989;28;20650;-79
2022/12/18 09:04:14;;;;;;;5.55;4.43;;;10.50;96.70;;;;;;5067316;28;20051;-77
2022/12/18 09:06:43;;;;;;;4.85;4.03;;;10.60;96.70;;;;;;5067932;28;20041;-76
2022/12/18 09:09:13;;;;;;;8.13;4.85;;;10.70;96.70;;;;;;5073002;28;20504;-76
2022/12/18 09:11:41;;;;;;;5.85;4.60;;;10.70;96.70;;;;;;5075333;28;20492;-76
2022/12/18 09:14:09;;;;;;;4.68;4.18;;;10.90;96.70;;;;;;5083874;28;20143;-79
2022/12/18 09:16:38;;;;;;;6.05;4.20;;;10.90;96.70;;;;;;5069769;28;20110;-75
2022/12/18 09:19:06;;;;;;;6.13;4.05;;;10.90;96.70;;;;;;5076195;28;20234;-76
2022/12/18 09:21:35;;;;;;;6.03;4.38;;;11.00;96.70;;;;;;5074786;28;20051;-76
2022/12/18 09:24:05;;;;;;;6.95;5.00;;;11.00;96.70;;;;;;5074390;28;20044;-76
2022/12/18 09:26:37;;;;;;;10.13;5.80;;;11.10;96.70;;;;;;5081373;28;20052;-76
2022/12/18 09:29:07;;;;;;;7.38;4.95;;;11.10;96.70;;;;;;5070922;28;20068;-76
2022/12/18 09:31:36;;;;;;;7.13;5.03;;;11.10;96.70;;;;;;5067108;28;20064;-76
2022/12/18 09:34:07;;;;;;;5.35;4.85;;;11.20;96.70;;;;;;5065654;28;20056;-76
2022/12/18 09:36:36;;;;;;;6.38;4.82;;;11.30;96.70;;;;;;5053543;28;20131;-75
2022/12/18 09:39:05;;;;;;;6.78;4.60;;;11.30;96.70;;;;;;5083207;28;20887;-77
2022/12/18 09:41:44;;;;;;;6.57;4.45;;;11.40;96.70;;;;;;5083548;28;20041;-76
2022/12/18 09:44:25;;;;;;;6.15;4.07;;;11.50;96.70;;;;;;5072746;28;20044;-76
2022/12/18 09:47:14;;;;;;;5.95;4.35;;;11.60;96.70;;;;;;5068079;28;20060;-76
2022/12/18 09:49:44;;;;;;;5.85;4.38;;;11.60;96.70;;;;;;5070579;28;20090;-78
2022/12/18 09:52:17;;;;;;;5.35;3.92;;;11.70;96.70;;;;;;5084602;28;20180;-75
2022/12/18 09:54:51;;;;;;;6.13;4.50;;;11.80;96.70;;;;;;5075572;28;20060;-77
2022/12/18 09:57:24;;;;;;;6.72;4.35;;;11.90;96.70;;;;;;5083444;28;20050;-76
2022/12/18 09:59:56;;;;;;;5.68;4.72;;;12.00;96.70;;;;;;5084858;28;20040;-76
2022/12/18 10:02:26;;;;;;;6.95;4.43;;;12.10;96.70;;;;;;5074071;28;20055;-78
2022/12/18 10:05:10;;;;;;;7.00;4.38;;;12.20;96.70;;;;;;5082096;28;20126;-75
2022/12/18 10:07:55;;;;;;;4.72;3.53;;;12.40;96.70;;;;;;5078941;28;20139;-76
2022/12/18 10:10:31;;;;;;;4.30;3.70;;;12.40;96.70;;;;;;5072983;28;20405;-76
2022/12/18 10:13:15;;;;;;;4.93;3.85;;;12.40;96.70;;;;;;5072312;28;20555;-77
2022/12/18 10:15:53;;;;;;;6.63;3.70;;;12.50;96.70;;;;;;5031547;28;20457;-77
2022/12/18 10:18:34;;;;;;;4.55;3.60;;;12.60;96.70;;;;;;5016869;28;20057;-76
2022/12/18 10:21:10;;;;;;;6.25;4.20;;;12.70;96.70;;;;;;5033140;28;20041;-76
2022/12/18 10:23:45;;;;;;;4.95;3.65;;;12.80;96.70;;;;;;5043615;28;20040;-79
2022/12/18 10:26:15;;;;;;;6.40;3.75;;;12.80;96.70;;;;;;5043021;28;20152;-77
2022/12/18 10:28:46;;;;;;;5.00;3.75;;;12.90;96.70;;;;;;5033718;28;20045;-78
2022/12/18 10:31:16;;;;;;;4.93;3.70;;;12.90;96.70;;;;;;5035562;28;20050;-75
2022/12/18 10:33:45;;;;;;;5.07;3.70;;;13.00;96.70;;;;;;5043451;28;20079;-75
2022/12/18 10:36:13;;;;;;;4.97;3.65;;;13.00;96.70;;;;;;5035176;28;20041;-78
2022/12/18 10:38:42;;;;;;;5.82;4.40;;;13.10;96.70;;;;;;5032288;28;20418;-77
2022/12/18 10:41:30;;;;;;;5.53;4.40;;;13.20;96.70;;;;;;5032275;28;20053;-76
2022/12/18 10:44:22;;;;;;;6.00;3.80;;;13.20;96.70;;;;;;5038275;28;20045;-76
2022/12/18 10:46:55;;;;;;;4.78;3.38;;;13.30;96.70;;;;;;5023168;28;20099;-77
2022/12/18 10:49:26;;;;;;;4.63;3.85;;;13.30;96.70;;;;;;5026996;28;20049;-77
2022/12/18 10:52:12;;;;;;;6.75;4.32;;;13.30;96.70;;;;;;5033601;28;20102;-78
2022/12/18 10:54:46;;;;;;;4.65;3.90;;;13.40;96.70;;;;;;5040730;28;20055;-77
2022/12/18 10:57:30;;;;;;;5.03;3.95;;;13.40;96.70;;;;;;5029578;28;20069;-76
2022/12/18 11:00:20;;;;;;;4.20;3.40;;;13.50;96.70;;;;;;5040771;28;20056;-75
2022/12/18 11:02:48;;;;;;;8.82;3.50;;;13.60;96.70;;;;;;5033076;28;20073;-75
2022/12/18 11:05:26;;;;;;;4.32;3.85;;;13.60;96.70;;;;;;5028866;28;20507;-78
2022/12/18 11:07:55;;;;;;;4.95;3.38;;;13.60;96.70;;;;;;5031903;28;20136;-77
2022/12/18 11:10:28;;;;;;;5.80;3.50;;;13.70;96.70;;;;;;5031341;28;20059;-76
2022/12/18 11:13:08;;;;;;;4.28;3.03;;;13.80;96.70;;;;;;5031652;28;20087;-79
2022/12/18 11:15:41;;;;;;;4.47;3.63;;;13.90;96.70;;;;;;5066475;28;20051;-77
2022/12/18 11:18:19;;;;;;;4.43;3.08;;;14.00;96.70;;;;;;5062339;28;20524;-79
2022/12/18 11:20:52;;;;;;;4.72;3.80;;;14.10;96.70;;;;;;5079195;28;20486;-77
2022/12/18 11:23:26;;;;;;;4.32;3.65;;;14.20;96.70;;;;;;5070828;28;20437;-78
2022/12/18 11:25:57;;;;;;;4.05;3.60;;;14.30;96.70;;;;;;5077437;28;20048;-76
2022/12/18 11:28:29;;;;;;;4.38;3.70;;;14.40;96.70;;;;;;5066509;28;20415;-76
2022/12/18 11:31:19;;;;;;;5.22;3.75;;;14.40;96.70;;;;;;5073020;28;20155;-77
2022/12/18 11:34:02;;;;;;;4.82;3.50;;;14.60;96.70;;;;;;5066158;28;20067;-76
2022/12/18 11:36:51;;;;;;;3.85;2.80;;;14.60;96.70;;;;;;5062646;28;20037;-77
2022/12/18 11:39:30;;;;;;;3.50;2.40;;;14.60;96.70;;;;;;5073392;28;20043;-77
2022/12/18 11:42:10;;;;;;;13.32;4.70;;;14.70;96.70;;;;;;5067529;28;20040;-77
2022/12/18 11:44:44;;;;;;;9.75;4.10;;;14.70;96.70;;;;;;5069979;28;20128;-78
2022/12/18 11:47:25;;;;;;;8.35;4.13;;;14.80;96.70;;;;;;5068495;28;20052;-77
2022/12/18 11:49:56;;;;;;;6.05;3.80;;;15.00;96.70;;;;;;5060300;28;20052;-76
2022/12/18 11:52:30;;;;;;;6.53;3.85;;;15.00;96.70;;;;;;5064399;28;20044;-77
2022/12/18 11:55:04;;;;;;;5.03;3.15;;;15.10;96.70;;;;;;5045691;28;20050;-78
2022/12/18 11:57:39;;;;;;;4.22;3.17;;;15.10;96.70;;;;;;5062428;28;20044;-76
2022/12/18 12:00:14;;;;;;;3.70;3.20;;;15.20;96.70;;;;;;5072524;28;20083;-77
2022/12/18 12:03:12;;;;;;;3.83;3.05;;;15.30;96.70;;;;;;5070616;28;20117;-78
2022/12/18 12:05:51;;;;;;;4.72;2.72;;;15.30;96.70;;;;;;5075856;28;20052;-80
2022/12/18 12:08:34;;;;;;;3.45;2.50;;;15.30;96.70;;;;;;5068838;28;20497;-79
2022/12/18 12:11:11;;;;;;;4.20;3.40;;;15.40;96.70;;;;;;5074810;28;20051;-78
2022/12/18 12:13:48;;;;;;;3.50;2.95;;;15.50;96.70;;;;;;5071367;28;20055;-78
2022/12/18 12:16:22;;;;;;;5.13;3.45;;;15.60;96.70;;;;;;5064677;28;20051;-78
2022/12/18 12:19:01;;;;;;;3.25;2.80;;;15.70;96.70;;;;;;5057762;28;20103;-78
2022/12/18 12:21:39;;;;;;;4.80;2.67;;;15.70;96.70;;;;;;5080129;28;20040;-81
2022/12/18 12:24:25;;;;;;;3.55;2.63;;;15.80;96.70;;;;;;5083593;28;20534;-77
2022/12/18 12:27:03;;;;;;;3.65;2.78;;;16.00;96.70;;;;;;5078626;28;20040;-76
2022/12/18 12:29:47;;;;;;;3.00;2.42;;;16.20;96.70;;;;;;5075762;28;20049;-77
2022/12/18 12:32:29;;;;;;;4.95;2.95;;;16.20;96.70;;;;;;5099320;28;20368;-76
2022/12/18 12:35:16;;;;;;;3.10;2.40;;;16.30;96.70;;;;;;5078269;28;20817;-79
2022/12/18 12:37:53;;;;;;;2.78;2.50;;;16.50;96.70;;;;;;5078593;28;20044;-79
2022/12/18 12:40:26;;;;;;;3.58;2.90;;;16.50;96.70;;;;;;5064958;28;20088;-78
2022/12/18 12:43:24;;;;;;;3.15;2.40;;;16.60;96.70;;;;;;5066920;28;20131;-81
2022/12/18 12:46:00;;;;;;;2.67;2.10;;;16.50;96.70;;;;;;5077354;28;20048;-82
2022/12/18 12:48:38;;;;;;;5.88;2.13;;;16.50;96.70;;;;;;5069613;28;20298;-83
2022/12/18 12:51:15;;;;;;;4.57;2.25;;;16.50;96.70;;;;;;5076811;28;20036;-81
2022/12/18 12:53:43;;;;;;;;;;;16.60;96.70;;;;;;5061671;28;20135;-82
2022/12/18 12:56:15;;;;;;;3.10;2.10;;;16.70;96.70;;;;;;5071366;28;20408;-79
2022/12/18 12:58:56;;;;;;;2.72;2.17;;;16.70;96.70;;;;;;5080373;28;20058;-85
2022/12/18 13:01:35;;;;;;;3.78;2.13;;;16.70;96.70;;;;;;5078969;28;20855;-79
2022/12/18 13:04:13;;;;;;;3.13;2.47;;;16.70;96.70;;;;;;5075536;28;20041;-81
2022/12/18 13:06:50;;;;;;;2.85;2.20;;;16.80;96.70;;;;;;5074326;28;20044;-79
2022/12/18 13:09:18;;;;;;;3.20;1.40;;;16.80;96.70;;;;;;5069922;28;20040;-79
2022/12/18 13:14:35;;;;;;;2.53;1.58;;;16.90;96.70;;;;;;5073076;28;20537;-79
2022/12/18 13:17:32;;;;;;;3.42;2.30;;;16.90;96.70;;;;;;5072961;28;20071;-78
2022/12/18 13:20:17;;;;;;;2.45;2.20;;;16.90;96.70;;;;;;5069918;28;20440;-78
2022/12/18 13:22:48;;;;;;;2.22;1.73;;;16.70;96.70;;;;;;5069301;28;20048;-79
2022/12/18 13:25:33;;;;;;;2.47;1.77;;;16.60;96.70;;;;;;5054303;28;20044;-80
2022/12/18 13:28:12;;;;;;;3.00;2.25;;;16.40;96.70;;;;;;5070901;28;20044;-80
2022/12/18 13:30:49;;;;;;;2.75;2.05;;;16.10;96.70;;;;;;5072750;28;20076;-78